Time;durP1;ratioP1;P1;durP2;ratioP2;P2;SDS_P1;SDS_P2;PMS_P1;PMS_P2;Temp;Humidity;BMP_temperature;BMP_pressure;BME280_temperature;BME280_humidity;BME280_pressure;Samples;Min_cycle;Max_cycle;Signal;HPM_P1;HPM_P2
2023/01/10 00:00:05;;;;;;;6.17;2.83;;;9.00;77.60;;;;;;5041800;28;20465;-70
2023/01/10 00:02:32;;;;;;;4.90;2.43;;;9.00;77.60;;;;;;5039860;28;20582;-70
2023/01/10 00:05:00;;;;;;;7.80;3.10;;;9.00;77.60;;;;;;5040584;28;21014;-70
2023/01/10 00:07:28;;;;;;;7.17;2.87;;;9.00;77.70;;;;;;5040793;28;20469;-71
2023/01/10 00:09:57;;;;;;;8.60;3.17;;;9.00;77.70;;;;;;5043252;28;20455;-71
2023/01/10 00:15:11;;;;;;;4.60;2.58;;;9.00;77.70;;;;;;5040990;28;20498;-69
2023/01/10 00:17:39;;;;;;;4.95;2.45;;;9.00;77.70;;;;;;5041367;28;20266;-69
2023/01/10 00:20:07;;;;;;;5.80;2.70;;;9.00;77.70;;;;;;5042145;28;20201;-71
2023/01/10 00:22:35;;;;;;;5.50;3.13;;;9.10;77.70;;;;;;5040834;28;20463;-70
2023/01/10 00:25:05;;;;;;;6.10;2.90;;;9.10;77.80;;;;;;5041865;28;20529;-69
2023/01/10 00:27:33;;;;;;;5.20;2.40;;;9.10;77.70;;;;;;5037550;28;20516;-71
2023/01/10 00:30:10;;;;;;;4.33;2.40;;;9.10;77.70;;;;;;5037714;28;20463;-71
2023/01/10 00:32:38;;;;;;;7.10;3.17;;;9.10;77.70;;;;;;5040625;28;20538;-70
2023/01/10 00:35:08;;;;;;;6.07;2.73;;;9.10;77.70;;;;;;5040525;28;20486;-72
2023/01/10 00:37:36;;;;;;;4.30;2.43;;;9.10;77.50;;;;;;5040580;28;20466;-71
2023/01/10 00:40:08;;;;;;;6.00;3.10;;;9.10;77.50;;;;;;5041547;28;20447;-70
2023/01/10 00:45:23;;;;;;;4.90;2.77;;;9.10;77.50;;;;;;5055167;28;20478;-70
2023/01/10 00:47:52;;;;;;;4.93;2.77;;;9.00;77.70;;;;;;5050867;28;20451;-70
2023/01/10 00:50:20;;;;;;;5.60;3.17;;;9.00;77.80;;;;;;5051865;28;20462;-70
2023/01/10 00:52:48;;;;;;;5.77;3.30;;;9.00;77.70;;;;;;5051904;28;20478;-70
2023/01/10 00:55:17;;;;;;;5.47;2.60;;;9.00;77.70;;;;;;5051927;28;20532;-71
2023/01/10 00:57:45;;;;;;;8.15;3.30;;;9.00;77.80;;;;;;5050833;28;20471;-71
2023/01/10 01:00:13;;;;;;;6.80;2.87;;;9.00;77.80;;;;;;5050177;28;20201;-70
2023/01/10 01:02:41;;;;;;;5.97;3.53;;;9.00;77.90;;;;;;5050116;28;20699;-70
2023/01/10 01:05:09;;;;;;;5.30;2.90;;;9.10;77.90;;;;;;5067738;28;20490;-69
2023/01/10 01:07:37;;;;;;;6.40;3.17;;;9.10;77.80;;;;;;5050806;28;20462;-70
2023/01/10 01:12:53;;;;;;;6.00;3.57;;;9.10;77.80;;;;;;5048487;28;20508;-71
2023/01/10 01:15:21;;;;;;;5.77;3.50;;;9.10;77.90;;;;;;5048800;28;20692;-70
2023/01/10 01:17:50;;;;;;;6.73;3.50;;;9.10;77.80;;;;;;5044163;28;20466;-70
2023/01/10 01:20:18;;;;;;;6.20;3.60;;;9.00;77.90;;;;;;5042374;28;20913;-70
2023/01/10 01:22:47;;;;;;;5.20;2.90;;;9.10;77.90;;;;;;5043739;28;20242;-70
2023/01/10 01:25:15;;;;;;;6.93;2.87;;;9.00;77.90;;;;;;5043688;28;20479;-70
2023/01/10 01:27:43;;;;;;;4.90;2.90;;;9.10;78.00;;;;;;5045084;28;20976;-69
2023/01/10 01:30:13;;;;;;;6.80;3.20;;;9.10;78.00;;;;;;5044369;28;21104;-71
2023/01/10 01:32:41;;;;;;;5.17;2.90;;;9.10;78.10;;;;;;5062994;28;20544;-70
2023/01/10 01:35:13;;;;;;;7.47;3.50;;;9.10;78.10;;;;;;5044401;28;20493;-71
2023/01/10 01:37:41;;;;;;;5.20;3.20;;;9.10;78.10;;;;;;5044136;28;20458;-70
2023/01/10 01:40:12;;;;;;;4.63;2.37;;;9.20;78.10;;;;;;5043060;28;20470;-69
2023/01/10 01:42:40;;;;;;;5.60;2.30;;;9.20;78.10;;;;;;5044068;28;20455;-70
2023/01/10 01:45:35;;;;;;;4.93;2.30;;;9.20;78.10;;;;;;5043338;28;20482;-71
2023/01/10 01:48:20;;;;;;;5.70;3.00;;;9.20;78.10;;;;;;5044951;28;20859;-69
2023/01/10 01:50:53;;;;;;;6.10;2.40;;;9.20;78.10;;;;;;5042542;28;20508;-70
2023/01/10 01:53:26;;;;;;;4.50;2.30;;;9.20;78.00;;;;;;5044453;28;20545;-70
2023/01/10 01:55:59;;;;;;;6.87;2.50;;;9.20;77.90;;;;;;5042857;28;20495;-70
2023/01/10 01:58:33;;;;;;;4.50;2.30;;;9.20;77.90;;;;;;5043036;28;20795;-70
2023/01/10 02:01:03;;;;;;;5.35;2.22;;;9.20;78.00;;;;;;5043391;28;20524;-70
2023/01/10 02:03:31;;;;;;;4.90;2.23;;;9.20;78.00;;;;;;5043949;28;20228;-70
2023/01/10 02:06:00;;;;;;;6.88;2.20;;;9.10;77.80;;;;;;5042555;28;20486;-70
2023/01/10 02:08:28;;;;;;;3.90;1.80;;;9.10;77.90;;;;;;5043363;28;20208;-70
2023/01/10 02:11:04;;;;;;;5.50;1.77;;;9.10;77.90;;;;;;5043630;28;20555;-70
2023/01/10 02:13:34;;;;;;;7.50;2.03;;;9.10;77.90;;;;;;5044908;28;21035;-70
2023/01/10 02:16:04;;;;;;;4.60;2.23;;;9.00;77.90;;;;;;5044070;28;20827;-70
2023/01/10 02:18:32;;;;;;;5.47;2.63;;;9.00;78.00;;;;;;5044488;28;20465;-71
2023/01/10 02:21:22;;;;;;;6.60;1.80;;;9.10;77.90;;;;;;5044182;28;20455;-71
2023/01/10 02:24:23;;;;;;;6.23;2.40;;;9.00;77.90;;;;;;5042330;28;20991;-71
2023/01/10 02:27:12;;;;;;;5.60;2.43;;;9.00;77.90;;;;;;5042818;28;20547;-71
2023/01/10 02:30:16;;;;;;;6.40;2.47;;;9.00;77.90;;;;;;5043213;28;20829;-71
2023/01/10 02:32:50;;;;;;;6.65;3.17;;;9.00;78.00;;;;;;5042858;28;20487;-71
2023/01/10 02:35:58;;;;;;;4.93;2.17;;;9.00;78.00;;;;;;5042236;28;20232;-70
2023/01/10 02:38:36;;;;;;;4.27;1.73;;;9.00;77.80;;;;;;5042543;28;20516;-70
2023/01/10 02:41:14;;;;;;;5.20;2.53;;;9.00;77.90;;;;;;5041994;28;20951;-71
2023/01/10 02:43:46;;;;;;;7.20;2.07;;;8.90;77.90;;;;;;5040586;28;20475;-71
2023/01/10 02:46:20;;;;;;;4.30;1.80;;;8.90;77.80;;;;;;5041068;28;20486;-70
2023/01/10 02:48:49;;;;;;;7.30;2.00;;;8.90;77.60;;;;;;5042415;28;20465;-71
2023/01/10 02:51:20;;;;;;;4.33;2.00;;;8.90;77.80;;;;;;5043651;28;20869;-71
2023/01/10 02:53:53;;;;;;;3.97;1.83;;;8.90;77.80;;;;;;5041271;28;21116;-70
2023/01/10 02:56:45;;;;;;;5.33;1.77;;;8.80;77.90;;;;;;5042076;28;20483;-70
2023/01/10 02:59:38;;;;;;;5.13;1.60;;;8.90;77.90;;;;;;5034697;28;20471;-70
2023/01/10 03:02:15;;;;;;;4.17;1.70;;;8.80;77.80;;;;;;5043256;28;20546;-70
2023/01/10 03:04:52;;;;;;;4.80;2.07;;;8.80;77.80;;;;;;5041622;28;20571;-70
2023/01/10 03:07:29;;;;;;;7.00;2.10;;;8.80;77.80;;;;;;5042090;28;21074;-70
2023/01/10 03:10:04;;;;;;;6.30;2.30;;;8.80;77.80;;;;;;5057391;28;20477;-70
2023/01/10 03:12:37;;;;;;;6.00;2.07;;;8.90;77.70;;;;;;5044671;28;20466;-70
2023/01/10 03:15:07;;;;;;;5.47;2.20;;;8.80;77.60;;;;;;5042022;28;21138;-70
2023/01/10 03:17:38;;;;;;;5.30;1.93;;;8.80;77.70;;;;;;5042658;28;20459;-70
2023/01/10 03:20:08;;;;;;;5.50;2.05;;;8.80;77.60;;;;;;5041821;28;20895;-70
2023/01/10 03:22:39;;;;;;;4.17;1.90;;;8.80;77.60;;;;;;5041930;28;20201;-70
2023/01/10 03:25:13;;;;;;;4.67;2.33;;;8.80;77.60;;;;;;5042046;28;20544;-70
2023/01/10 03:27:48;;;;;;;7.10;2.50;;;8.80;77.70;;;;;;5039841;28;20455;-70
2023/01/10 03:30:25;;;;;;;4.40;2.00;;;8.80;77.60;;;;;;5039183;28;20981;-70
2023/01/10 03:32:55;;;;;;;4.07;1.83;;;8.80;77.60;;;;;;5040905;28;20200;-70
2023/01/10 03:35:33;;;;;;;4.03;1.83;;;8.80;77.60;;;;;;5041984;28;20474;-70
2023/01/10 03:38:08;;;;;;;5.53;2.20;;;8.80;77.50;;;;;;5039404;28;20586;-70
2023/01/10 03:40:43;;;;;;;4.73;1.87;;;8.80;77.60;;;;;;5037123;28;20483;-70
2023/01/10 03:46:08;;;;;;;10.20;2.30;;;8.80;77.60;;;;;;5040214;28;20228;-69
2023/01/10 03:48:39;;;;;;;6.43;2.37;;;8.80;77.50;;;;;;5041760;28;20462;-70
2023/01/10 03:51:09;;;;;;;6.30;2.10;;;8.80;77.60;;;;;;5042278;28;21371;-70
2023/01/10 03:53:39;;;;;;;6.50;2.17;;;8.80;77.50;;;;;;5040046;28;20957;-71
2023/01/10 03:56:07;;;;;;;9.80;2.40;;;8.80;77.50;;;;;;5057411;28;20236;-70
2023/01/10 03:58:35;;;;;;;3.83;1.70;;;8.80;77.50;;;;;;5041622;28;20536;-70
2023/01/10 04:01:03;;;;;;;8.17;2.33;;;8.80;77.40;;;;;;5042457;28;20516;-71
2023/01/10 04:03:31;;;;;;;8.00;2.20;;;8.80;77.40;;;;;;5040909;28;20438;-70
2023/01/10 04:05:59;;;;;;;6.20;2.20;;;8.70;77.40;;;;;;5040870;28;20483;-71
2023/01/10 04:08:28;;;;;;;6.70;2.00;;;8.70;77.40;;;;;;5039268;28;20497;-70
2023/01/10 04:10:56;;;;;;;7.35;1.95;;;8.70;77.50;;;;;;5041914;28;20274;-70
2023/01/10 04:13:24;;;;;;;9.00;2.28;;;8.80;77.40;;;;;;5041787;28;20212;-70
2023/01/10 04:15:52;;;;;;;8.83;1.80;;;8.70;77.40;;;;;;5062532;28;20240;-71
2023/01/10 04:18:20;;;;;;;6.77;1.93;;;8.80;77.30;;;;;;5043295;28;20553;-70
2023/01/10 04:20:48;;;;;;;4.13;2.00;;;8.70;77.30;;;;;;5042826;28;20481;-70
2023/01/10 04:23:19;;;;;;;9.77;2.27;;;8.70;77.20;;;;;;5044946;28;20459;-70
2023/01/10 04:25:48;;;;;;;8.07;1.93;;;8.70;77.30;;;;;;5045607;28;20483;-70
2023/01/10 04:28:16;;;;;;;5.00;1.60;;;8.60;77.40;;;;;;5044259;28;20467;-70
2023/01/10 04:30:44;;;;;;;6.60;1.80;;;8.70;77.40;;;;;;5045451;28;20457;-69
2023/01/10 04:33:12;;;;;;;6.03;1.97;;;8.70;77.40;;;;;;5045826;28;21015;-70
2023/01/10 04:35:40;;;;;;;5.72;1.80;;;8.70;77.40;;;;;;5043673;28;20984;-70
2023/01/10 04:38:08;;;;;;;4.87;1.80;;;8.70;77.40;;;;;;5043291;28;20209;-70
2023/01/10 04:40:36;;;;;;;7.67;1.97;;;8.70;77.30;;;;;;5043606;28;20466;-70
2023/01/10 04:43:05;;;;;;;5.50;1.70;;;8.70;77.30;;;;;;5045729;28;20460;-69
2023/01/10 04:45:33;;;;;;;4.57;2.08;;;8.70;77.30;;;;;;5045355;28;21104;-70
2023/01/10 04:48:01;;;;;;;4.17;1.70;;;8.70;77.20;;;;;;5045298;28;20312;-70
2023/01/10 04:50:29;;;;;;;6.27;1.60;;;8.70;77.30;;;;;;5045951;28;20446;-69
2023/01/10 04:52:57;;;;;;;5.00;1.80;;;8.70;77.20;;;;;;5044463;28;20858;-70
2023/01/10 04:55:25;;;;;;;5.13;1.70;;;8.70;77.30;;;;;;5044322;28;20983;-71
2023/01/10 04:57:53;;;;;;;8.77;1.97;;;8.60;77.30;;;;;;5044824;28;20540;-70
2023/01/10 05:00:22;;;;;;;5.20;1.80;;;8.70;77.20;;;;;;5044883;28;20485;-70
2023/01/10 05:02:55;;;;;;;5.93;1.60;;;8.60;77.20;;;;;;5043872;28;20459;-70
2023/01/10 05:05:24;;;;;;;6.47;1.90;;;8.60;77.20;;;;;;5042253;28;20486;-69
2023/01/10 05:07:51;;;;;;;8.53;2.00;;;8.60;77.20;;;;;;5045303;28;20463;-70
2023/01/10 05:10:20;;;;;;;5.82;1.90;;;8.60;77.20;;;;;;5045287;28;20509;-70
2023/01/10 05:12:47;;;;;;;7.03;2.40;;;8.60;77.10;;;;;;5044507;28;20193;-70
2023/01/10 05:15:16;;;;;;;7.53;2.17;;;8.60;77.10;;;;;;5047941;28;20538;-70
2023/01/10 05:17:45;;;;;;;7.17;2.03;;;8.60;77.10;;;;;;5049046;28;20816;-70
2023/01/10 05:20:13;;;;;;;5.33;1.63;;;8.60;77.10;;;;;;5046547;28;20527;-71
2023/01/10 05:22:41;;;;;;;5.50;1.87;;;8.60;77.10;;;;;;5060062;28;21060;-70
2023/01/10 05:25:09;;;;;;;6.03;2.05;;;8.60;77.10;;;;;;5044737;28;21044;-70
2023/01/10 05:27:40;;;;;;;6.30;1.83;;;8.60;77.00;;;;;;5043593;28;20208;-70
2023/01/10 05:30:11;;;;;;;7.78;1.85;;;8.60;76.90;;;;;;5044360;28;20467;-70
2023/01/10 05:32:40;;;;;;;5.87;1.87;;;8.50;76.90;;;;;;5043503;28;20246;-70
2023/01/10 05:35:10;;;;;;;8.53;2.03;;;8.50;76.80;;;;;;5043295;28;20482;-69
2023/01/10 05:37:38;;;;;;;7.70;2.05;;;8.50;76.80;;;;;;5044566;28;20467;-69
2023/01/10 05:40:07;;;;;;;5.40;1.50;;;8.50;76.80;;;;;;5044086;28;20200;-69
2023/01/10 05:42:35;;;;;;;5.63;1.90;;;8.50;76.90;;;;;;5044912;28;20474;-70
2023/01/10 05:45:03;;;;;;;5.50;1.60;;;8.50;76.90;;;;;;5044611;28;20542;-69
2023/01/10 05:47:31;;;;;;;8.43;1.77;;;8.50;76.90;;;;;;5045843;28;20455;-70
2023/01/10 05:49:59;;;;;;;6.50;1.90;;;8.50;76.90;;;;;;5043555;28;20513;-71
2023/01/10 05:52:28;;;;;;;5.17;1.90;;;8.50;76.80;;;;;;5042854;28;20207;-69
2023/01/10 05:54:56;;;;;;;4.35;1.70;;;8.50;76.80;;;;;;5044097;28;20475;-71
2023/01/10 05:57:24;;;;;;;4.68;1.60;;;8.50;76.90;;;;;;5044413;28;20209;-71
2023/01/10 05:59:52;;;;;;;5.67;2.03;;;8.50;76.90;;;;;;5044088;28;20270;-70
2023/01/10 06:02:20;;;;;;;12.00;2.10;;;8.60;76.80;;;;;;5046353;28;20466;-71
2023/01/10 06:04:48;;;;;;;6.17;1.87;;;8.60;76.80;;;;;;5041796;28;20458;-71
2023/01/10 06:07:16;;;;;;;5.33;1.90;;;8.60;76.70;;;;;;5042396;28;20501;-71
2023/01/10 06:09:45;;;;;;;6.40;2.10;;;8.60;76.70;;;;;;5041759;28;21002;-71
2023/01/10 06:12:13;;;;;;;13.03;2.33;;;8.60;76.70;;;;;;5041155;28;21497;-70
2023/01/10 06:14:41;;;;;;;6.30;2.50;;;8.60;76.60;;;;;;5040251;28;20513;-69
2023/01/10 06:17:09;;;;;;;12.30;3.00;;;8.60;76.60;;;;;;5042706;28;20482;-70
2023/01/10 06:19:37;;;;;;;6.83;2.30;;;8.60;76.50;;;;;;5044376;28;20976;-70
2023/01/10 06:22:05;;;;;;;11.73;4.17;;;8.60;76.60;;;;;;5043973;28;20450;-70
2023/01/10 06:24:33;;;;;;;7.83;2.40;;;8.50;76.50;;;;;;5044487;28;20504;-70
2023/01/10 06:27:02;;;;;;;7.73;2.73;;;8.50;76.50;;;;;;5047538;28;20570;-70
2023/01/10 06:29:31;;;;;;;6.47;2.73;;;8.50;76.60;;;;;;5043945;28;20532;-70
2023/01/10 06:31:59;;;;;;;9.77;2.50;;;8.50;76.50;;;;;;5044320;28;20446;-70
2023/01/10 06:34:27;;;;;;;8.73;2.70;;;8.50;76.50;;;;;;5040520;28;20208;-70
2023/01/10 06:36:54;;;;;;;10.73;2.97;;;8.50;76.50;;;;;;5044311;28;20992;-70
2023/01/10 06:39:22;;;;;;;9.33;2.47;;;8.50;76.50;;;;;;5044184;28;20213;-70
2023/01/10 06:41:50;;;;;;;10.97;2.93;;;8.50;76.50;;;;;;5043794;28;20474;-70
2023/01/10 06:44:20;;;;;;;9.30;2.73;;;8.50;76.40;;;;;;5044344;28;20451;-70
2023/01/10 06:46:47;;;;;;;7.60;2.53;;;8.50;76.40;;;;;;5043335;28;20514;-69
2023/01/10 06:49:15;;;;;;;7.95;2.70;;;8.40;76.40;;;;;;5045341;28;20515;-71
2023/01/10 06:51:43;;;;;;;7.88;2.90;;;8.40;76.50;;;;;;5043542;28;20205;-70
2023/01/10 06:54:11;;;;;;;7.07;2.65;;;8.40;76.50;;;;;;5044208;28;20205;-70
2023/01/10 06:56:39;;;;;;;8.52;3.63;;;8.40;76.50;;;;;;5043008;28;20686;-69
2023/01/10 06:59:08;;;;;;;11.87;2.70;;;8.50;76.50;;;;;;5042615;28;20204;-69
2023/01/10 07:01:37;;;;;;;13.73;3.20;;;8.50;76.50;;;;;;5042757;28;20471;-68
2023/01/10 07:04:06;;;;;;;9.43;2.75;;;8.50;76.50;;;;;;5043278;28;20466;-69
2023/01/10 07:06:37;;;;;;;7.90;3.00;;;8.50;76.50;;;;;;5044013;28;20251;-68
2023/01/10 07:09:05;;;;;;;7.70;2.93;;;8.50;76.40;;;;;;5043671;28;20455;-69
2023/01/10 07:11:34;;;;;;;10.27;2.90;;;8.50;76.50;;;;;;5042308;28;20528;-65
2023/01/10 07:14:02;;;;;;;9.87;3.00;;;8.50;76.50;;;;;;5043745;28;21164;-66
2023/01/10 07:16:30;;;;;;;9.23;3.23;;;8.40;76.40;;;;;;5043490;28;20478;-68
2023/01/10 07:18:59;;;;;;;6.27;2.40;;;8.40;76.40;;;;;;5044728;28;21109;-68
2023/01/10 07:21:27;;;;;;;10.50;2.47;;;8.40;76.40;;;;;;5042409;28;20505;-67
2023/01/10 07:23:55;;;;;;;11.20;2.90;;;8.40;76.40;;;;;;5043352;28;20520;-67
2023/01/10 07:26:23;;;;;;;9.60;3.00;;;8.40;76.50;;;;;;5043301;28;20459;-67
2023/01/10 07:28:51;;;;;;;9.10;3.00;;;8.40;76.50;;;;;;5043461;28;20207;-67
2023/01/10 07:31:21;;;;;;;11.88;3.22;;;8.40;76.50;;;;;;5043488;28;20521;-67
2023/01/10 07:33:51;;;;;;;12.77;3.33;;;8.40;76.40;;;;;;5042959;28;20204;-67
2023/01/10 07:36:20;;;;;;;11.05;2.58;;;8.40;76.40;;;;;;5043102;28;20229;-67
2023/01/10 07:38:48;;;;;;;7.95;2.78;;;8.30;76.50;;;;;;5042833;28;20239;-67
2023/01/10 07:41:16;;;;;;;9.30;3.17;;;8.30;76.50;;;;;;5043206;28;20571;-67
2023/01/10 07:43:44;;;;;;;11.50;3.42;;;8.30;76.50;;;;;;5042637;28;20262;-67
2023/01/10 07:46:12;;;;;;;12.00;3.27;;;8.30;76.40;;;;;;5043303;28;20888;-66
2023/01/10 07:48:41;;;;;;;9.43;2.70;;;8.30;76.40;;;;;;5042583;28;20447;-67
2023/01/10 07:51:09;;;;;;;9.65;2.97;;;8.30;76.50;;;;;;5042130;28;20493;-68
2023/01/10 07:53:39;;;;;;;13.57;3.05;;;8.30;76.40;;;;;;5042536;28;20293;-67
2023/01/10 07:56:07;;;;;;;13.60;2.87;;;8.30;76.50;;;;;;5043095;28;20792;-67
2023/01/10 07:58:36;;;;;;;10.82;2.42;;;8.30;76.50;;;;;;5042873;28;20504;-66
2023/01/10 08:01:05;;;;;;;11.38;3.13;;;8.30;76.50;;;;;;5042827;28;20204;-67
2023/01/10 08:03:34;;;;;;;9.52;3.08;;;8.30;76.40;;;;;;5043119;28;20939;-67
2023/01/10 08:06:04;;;;;;;8.25;2.40;;;8.30;76.40;;;;;;5042680;28;20323;-67
2023/01/10 08:08:33;;;;;;;9.00;2.70;;;8.30;76.50;;;;;;5042691;28;20219;-67
2023/01/10 08:11:03;;;;;;;12.02;3.90;;;8.30;76.40;;;;;;5042532;28;20954;-67
2023/01/10 08:13:31;;;;;;;15.50;2.87;;;8.30;76.50;;;;;;5043091;28;20235;-66
2023/01/10 08:15:59;;;;;;;10.17;2.50;;;8.30;76.30;;;;;;5042737;28;20486;-68
2023/01/10 08:18:27;;;;;;;5.93;2.60;;;8.30;76.40;;;;;;5042885;28;20447;-68
2023/01/10 08:20:55;;;;;;;8.93;3.77;;;8.30;76.30;;;;;;5042292;28;20290;-68
2023/01/10 08:23:24;;;;;;;13.52;4.25;;;8.30;76.30;;;;;;5042852;28;20454;-68
2023/01/10 08:25:53;;;;;;;12.57;2.95;;;8.30;76.30;;;;;;5042411;28;20685;-68
2023/01/10 08:28:22;;;;;;;7.55;2.55;;;8.40;76.20;;;;;;5042993;28;20215;-68
2023/01/10 08:30:54;;;;;;;8.25;2.22;;;8.40;76.10;;;;;;5041787;28;20216;-68
2023/01/10 08:33:23;;;;;;;8.48;2.33;;;8.30;76.10;;;;;;5042092;28;20231;-66
2023/01/10 08:35:51;;;;;;;11.25;3.72;;;8.40;76.10;;;;;;5043083;28;20221;-68
2023/01/10 08:38:19;;;;;;;10.57;2.80;;;8.40;76.10;;;;;;5042503;28;20270;-68
2023/01/10 08:40:47;;;;;;;11.20;2.95;;;8.40;76.00;;;;;;5042208;28;20320;-68
2023/01/10 08:43:15;;;;;;;9.20;2.92;;;8.40;76.00;;;;;;5042429;28;20204;-68
2023/01/10 08:45:44;;;;;;;12.95;2.97;;;8.40;76.00;;;;;;5041719;28;20220;-69
2023/01/10 08:48:12;;;;;;;11.10;2.53;;;8.30;75.90;;;;;;5042482;28;20618;-68
2023/01/10 08:50:40;;;;;;;8.57;2.85;;;8.40;75.90;;;;;;5042238;28;20204;-68
2023/01/10 08:53:08;;;;;;;6.65;2.53;;;8.30;75.90;;;;;;5042465;28;20665;-67
2023/01/10 08:55:37;;;;;;;6.53;2.90;;;8.30;75.80;;;;;;5042483;28;20238;-68
2023/01/10 08:58:05;;;;;;;7.95;2.90;;;8.30;75.80;;;;;;5041977;28;20490;-67
2023/01/10 09:00:33;;;;;;;7.50;2.65;;;8.30;75.80;;;;;;5042747;28;20318;-67
2023/01/10 09:03:02;;;;;;;14.33;2.70;;;8.20;75.90;;;;;;5045136;28;20884;-67
2023/01/10 09:05:30;;;;;;;14.60;3.55;;;8.30;75.90;;;;;;5045535;28;20466;-67
2023/01/10 09:07:59;;;;;;;9.63;2.80;;;8.30;76.00;;;;;;5045824;28;20725;-68
2023/01/10 09:10:28;;;;;;;8.48;2.63;;;8.30;75.90;;;;;;5046279;28;20209;-68
2023/01/10 09:13:00;;;;;;;9.82;2.97;;;8.30;75.80;;;;;;5045530;28;20205;-68
2023/01/10 09:15:29;;;;;;;9.55;3.38;;;8.30;75.80;;;;;;5046257;28;20282;-68
2023/01/10 09:17:59;;;;;;;8.32;2.75;;;8.30;75.80;;;;;;5045572;28;21002;-68
2023/01/10 09:20:29;;;;;;;9.10;2.83;;;8.30;75.90;;;;;;5046336;28;20214;-68
2023/01/10 09:22:57;;;;;;;11.85;2.75;;;8.40;75.90;;;;;;5044571;28;20763;-67
2023/01/10 09:25:25;;;;;;;9.23;2.43;;;8.40;75.80;;;;;;5047546;28;20220;-68
2023/01/10 09:27:58;;;;;;;9.23;2.70;;;8.40;75.70;;;;;;5045295;28;20537;-68
2023/01/10 09:30:27;;;;;;;7.85;2.83;;;8.40;75.60;;;;;;5045759;28;20455;-68
2023/01/10 09:32:56;;;;;;;16.88;3.45;;;8.40;75.70;;;;;;5044135;28;20278;-68
2023/01/10 09:35:25;;;;;;;12.02;3.10;;;8.50;75.70;;;;;;5045543;28;20236;-68
2023/01/10 09:37:56;;;;;;;10.82;4.05;;;8.50;75.60;;;;;;5045110;28;20679;-68
2023/01/10 09:40:39;;;;;;;13.43;2.80;;;8.50;75.60;;;;;;5045103;28;20794;-68
2023/01/10 09:43:16;;;;;;;8.98;3.50;;;8.50;75.60;;;;;;5044237;28;20455;-68
2023/01/10 09:45:53;;;;;;;9.68;3.17;;;8.50;75.60;;;;;;5045005;28;20290;-68
2023/01/10 09:48:32;;;;;;;13.40;4.28;;;8.50;75.50;;;;;;5045531;28;20888;-67
2023/01/10 09:51:14;;;;;;;15.87;4.03;;;8.50;75.40;;;;;;5044387;28;20301;-67
2023/01/10 09:53:45;;;;;;;13.87;3.17;;;8.40;75.40;;;;;;5044744;28;21013;-68
2023/01/10 09:56:15;;;;;;;12.82;3.10;;;8.40;75.50;;;;;;5044974;28;20888;-67
2023/01/10 09:58:44;;;;;;;13.00;3.60;;;8.40;75.60;;;;;;5044570;28;20709;-69
2023/01/10 10:01:16;;;;;;;11.20;3.53;;;8.40;75.60;;;;;;5044950;28;21122;-67
2023/01/10 10:03:51;;;;;;;7.10;3.27;;;8.50;75.70;;;;;;5044669;28;21194;-69
2023/01/10 10:06:21;;;;;;;10.48;3.20;;;8.50;75.70;;;;;;5045152;28;20473;-68
2023/01/10 10:08:52;;;;;;;9.77;3.80;;;8.50;75.70;;;;;;5043601;28;20616;-68
2023/01/10 10:11:37;;;;;;;11.55;3.97;;;8.50;75.70;;;;;;5044928;28;20947;-68
2023/01/10 10:14:11;;;;;;;10.87;2.80;;;8.60;75.70;;;;;;5044399;28;20254;-66
2023/01/10 10:16:52;;;;;;;14.52;3.20;;;8.60;75.60;;;;;;5044297;28;20524;-67
2023/01/10 10:19:28;;;;;;;21.45;4.00;;;8.60;75.50;;;;;;5044196;28;20825;-68
2023/01/10 10:22:02;;;;;;;11.53;2.87;;;8.60;75.60;;;;;;5044368;28;20208;-67
2023/01/10 10:24:44;;;;;;;10.35;3.10;;;8.60;75.50;;;;;;5044633;28;20455;-68
2023/01/10 10:27:19;;;;;;;9.80;3.23;;;8.60;75.50;;;;;;5043458;28;20220;-68
2023/01/10 10:30:14;;;;;;;13.75;3.30;;;8.60;75.50;;;;;;5042732;28;20462;-68
2023/01/10 10:33:10;;;;;;;8.65;2.55;;;8.60;75.40;;;;;;5033549;28;20220;-68
2023/01/10 10:35:41;;;;;;;13.70;3.17;;;8.60;75.40;;;;;;5062727;28;20951;-68
2023/01/10 10:38:13;;;;;;;11.23;3.37;;;8.60;75.40;;;;;;5045432;28;20520;-68
2023/01/10 10:40:44;;;;;;;18.77;3.50;;;8.60;75.40;;;;;;5044056;28;20461;-67
2023/01/10 10:43:19;;;;;;;9.17;2.90;;;8.60;75.30;;;;;;5044234;28;20269;-67
2023/01/10 10:45:52;;;;;;;16.87;3.10;;;8.70;75.40;;;;;;5041978;28;20481;-67
2023/01/10 10:48:24;;;;;;;12.00;2.57;;;8.70;75.30;;;;;;5042597;28;20461;-67
2023/01/10 10:51:02;;;;;;;9.77;2.70;;;8.70;75.20;;;;;;5043911;28;20458;-67
2023/01/10 10:53:32;;;;;;;9.00;2.55;;;8.70;75.10;;;;;;5043356;28;20308;-67
2023/01/10 10:56:03;;;;;;;11.80;2.40;;;8.70;74.90;;;;;;5042776;28;20776;-67
2023/01/10 10:58:31;;;;;;;8.33;2.40;;;8.70;74.90;;;;;;5044151;28;20509;-67
2023/01/10 11:01:00;;;;;;;10.87;3.10;;;8.70;74.90;;;;;;5043624;28;20521;-67
2023/01/10 11:03:38;;;;;;;12.10;2.43;;;8.70;74.80;;;;;;5043541;28;20443;-67
2023/01/10 11:06:07;;;;;;;12.30;2.57;;;8.70;74.90;;;;;;5043677;28;20532;-67
2023/01/10 11:08:38;;;;;;;10.00;2.83;;;8.70;74.80;;;;;;5043487;28;20475;-67
2023/01/10 11:11:16;;;;;;;9.83;2.60;;;8.70;74.70;;;;;;5041947;28;20465;-67
2023/01/10 11:13:51;;;;;;;8.10;2.35;;;8.70;74.60;;;;;;5043491;28;20447;-67
2023/01/10 11:16:25;;;;;;;8.00;2.23;;;8.80;74.50;;;;;;5042890;28;20227;-67
2023/01/10 11:19:09;;;;;;;8.70;2.20;;;8.80;74.40;;;;;;5043380;28;20572;-67
2023/01/10 11:21:40;;;;;;;9.20;2.30;;;8.70;74.30;;;;;;5041962;28;20466;-67
2023/01/10 11:24:28;;;;;;;8.10;2.33;;;8.70;74.20;;;;;;5043602;28;20840;-66
2023/01/10 11:26:59;;;;;;;8.85;2.47;;;8.70;74.20;;;;;;5042651;28;20229;-68
2023/01/10 11:29:37;;;;;;;7.73;2.57;;;8.70;74.10;;;;;;5042637;28;20726;-68
2023/01/10 11:32:13;;;;;;;8.73;2.27;;;8.70;74.00;;;;;;5045738;28;20516;-67
2023/01/10 11:34:47;;;;;;;12.57;2.53;;;8.70;74.00;;;;;;5043703;28;20447;-67
2023/01/10 11:37:20;;;;;;;10.63;2.40;;;8.70;74.00;;;;;;5043144;28;20479;-67
2023/01/10 11:39:48;;;;;;;43.78;4.35;;;8.70;74.00;;;;;;5043559;28;20454;-68
2023/01/10 11:42:29;;;;;;;11.60;2.70;;;8.70;73.90;;;;;;5042979;28;20657;-68
2023/01/10 11:45:24;;;;;;;14.30;2.85;;;8.70;73.80;;;;;;5042518;28;20450;-67
2023/01/10 11:47:54;;;;;;;10.30;2.70;;;8.70;73.70;;;;;;5042113;28;20208;-68
2023/01/10 11:50:25;;;;;;;13.17;3.00;;;8.60;73.70;;;;;;5041781;28;20197;-68
2023/01/10 11:52:53;;;;;;;13.63;3.20;;;8.60;73.70;;;;;;5042824;28;20450;-68
2023/01/10 11:55:23;;;;;;;11.63;2.85;;;8.60;73.80;;;;;;5042843;28;20498;-67
2023/01/10 11:58:02;;;;;;;10.07;2.87;;;8.70;73.70;;;;;;5042918;28;20254;-66
2023/01/10 12:00:37;;;;;;;16.50;3.67;;;8.70;73.60;;;;;;5042787;28;20979;-66
2023/01/10 12:03:20;;;;;;;13.68;3.38;;;8.70;73.60;;;;;;5043046;28;20610;-68
2023/01/10 12:05:54;;;;;;;6.93;3.15;;;8.70;73.60;;;;;;5041473;28;20224;-67
2023/01/10 12:08:26;;;;;;;10.05;3.10;;;8.70;73.50;;;;;;5042521;28;20205;-67
2023/01/10 12:11:03;;;;;;;11.82;2.80;;;8.70;73.50;;;;;;5042621;28;20234;-68
2023/01/10 12:13:44;;;;;;;10.95;3.28;;;8.70;73.50;;;;;;5042098;28;20837;-68
2023/01/10 12:16:18;;;;;;;9.77;2.83;;;8.60;73.50;;;;;;5042587;28;20228;-68
2023/01/10 12:18:46;;;;;;;9.17;2.90;;;8.60;73.40;;;;;;5042531;28;20824;-68
2023/01/10 12:21:19;;;;;;;8.93;2.87;;;8.60;73.50;;;;;;5042100;28;20458;-68
2023/01/10 12:23:49;;;;;;;11.25;2.78;;;8.60;73.60;;;;;;5042669;28;20497;-68
2023/01/10 12:26:17;;;;;;;10.90;3.20;;;8.70;73.70;;;;;;5042431;28;20235;-67
2023/01/10 12:28:52;;;;;;;6.43;2.93;;;8.70;73.60;;;;;;5042434;28;20466;-67
2023/01/10 12:31:22;;;;;;;7.53;2.40;;;8.70;73.50;;;;;;5042811;28;20971;-68
2023/01/10 12:33:55;;;;;;;11.50;3.00;;;8.70;73.40;;;;;;5041219;28;20451;-67
2023/01/10 12:36:34;;;;;;;10.23;3.03;;;8.70;73.50;;;;;;5042766;28;20486;-67
2023/01/10 12:39:13;;;;;;;11.97;3.70;;;8.70;73.50;;;;;;5046550;28;21023;-68
2023/01/10 12:44:42;;;;;;;10.93;2.30;;;8.60;73.60;;;;;;5046577;28;20243;-68
2023/01/10 12:47:28;;;;;;;9.67;2.70;;;8.60;73.60;;;;;;5044832;28;20479;-68
2023/01/10 12:50:02;;;;;;;7.60;3.28;;;8.60;73.60;;;;;;5045687;28;20959;-67
2023/01/10 12:52:39;;;;;;;8.73;3.30;;;8.70;73.60;;;;;;5046416;28;20262;-68
2023/01/10 12:55:12;;;;;;;11.13;2.57;;;8.70;73.60;;;;;;5045891;28;20208;-68
2023/01/10 12:57:43;;;;;;;9.73;2.97;;;8.70;73.60;;;;;;5046219;28;20498;-67
2023/01/10 13:00:23;;;;;;;11.10;3.00;;;8.70;73.70;;;;;;5046384;28;20580;-67
2023/01/10 13:02:54;;;;;;;19.60;3.20;;;8.70;73.70;;;;;;5045660;28;20877;-67
2023/01/10 13:05:24;;;;;;;18.63;3.57;;;8.70;73.70;;;;;;5045500;28;20290;-67
2023/01/10 13:07:55;;;;;;;10.30;2.37;;;8.70;73.70;;;;;;5045836;28;20580;-67
2023/01/10 13:10:25;;;;;;;12.77;3.03;;;8.70;73.70;;;;;;5042712;28;21029;-68
2023/01/10 13:12:57;;;;;;;13.60;2.60;;;8.70;73.80;;;;;;5035955;28;20258;-68
2023/01/10 13:15:30;;;;;;;15.30;2.90;;;8.70;73.80;;;;;;5036570;28;20757;-68
2023/01/10 13:18:01;;;;;;;13.37;2.80;;;8.70;73.90;;;;;;5044461;28;20515;-68
2023/01/10 13:20:40;;;;;;;14.95;3.67;;;8.70;73.90;;;;;;5045100;28;21036;-66
2023/01/10 13:23:29;;;;;;;14.90;3.17;;;8.70;73.90;;;;;;5044988;28;20234;-68
2023/01/10 13:26:00;;;;;;;14.95;3.50;;;8.70;73.90;;;;;;5044563;28;21165;-68
2023/01/10 13:28:30;;;;;;;12.30;2.50;;;8.60;74.00;;;;;;5046109;28;20205;-67